TimeCST,TemperatureF,Dew PointF,Humidity,Sea Level PressureIn,VisibilityMPH,Wind Direction,Wind SpeedMPH,Gust SpeedMPH,PrecipitationIn,Events,Conditions,WindDirDegrees,DateUTC
12:15 AM,32.0,26.6,80,30.50,10.0,Calm,Calm,-,N/A,,Clear,0,2013-01-18 06:15:00
12:35 AM,32.0,26.6,80,30.50,10.0,North,-9999.0,-,N/A,,Clear,0,2013-01-18 06:35:00
12:55 AM,30.2,26.6,86,30.49,10.0,Calm,Calm,-,N/A,,Clear,0,2013-01-18 06:55:00
1:15 AM,30.2,26.6,86,30.49,10.0,Calm,Calm,-,N/A,,Clear,0,2013-01-18 07:15:00
1:35 AM,30.2,26.6,86,30.49,10.0,Calm,Calm,-,N/A,,Clear,0,2013-01-18 07:35:00
1:55 AM,28.4,24.8,86,30.49,10.0,Calm,Calm,-,N/A,,Clear,0,2013-01-18 07:55:00
2:15 AM,28.4,24.8,86,30.50,10.0,Calm,Calm,-,N/A,,Clear,0,2013-01-18 08:15:00
2:35 AM,28.4,24.8,86,30.49,10.0,Calm,Calm,-,N/A,,Clear,0,2013-01-18 08:35:00
2:55 AM,28.4,24.8,86,30.49,10.0,Calm,Calm,-,N/A,,Clear,0,2013-01-18 08:55:00
3:15 AM,28.4,24.8,86,30.49,10.0,Calm,Calm,-,N/A,,Clear,0,2013-01-18 09:15:00
3:35 AM,26.6,24.8,93,30.49,10.0,Calm,Calm,-,N/A,,Clear,0,2013-01-18 09:35:00
3:55 AM,28.4,24.8,86,30.49,10.0,Calm,Calm,-,N/A,,Clear,0,2013-01-18 09:55:00
4:15 AM,26.6,24.8,93,30.48,10.0,Calm,Calm,-,N/A,,Clear,0,2013-01-18 10:15:00
4:35 AM,28.4,24.8,86,30.48,10.0,Calm,Calm,-,N/A,,Clear,0,2013-01-18 10:35:00
4:55 AM,28.4,24.8,86,30.48,10.0,Calm,Calm,-,N/A,,Clear,0,2013-01-18 10:55:00
5:15 AM,26.6,24.8,93,30.47,10.0,Calm,Calm,-,N/A,,Clear,0,2013-01-18 11:15:00
5:55 AM,26.6,24.8,93,30.47,10.0,Calm,Calm,-,N/A,,Clear,0,2013-01-18 11:55:00
6:15 AM,26.6,24.8,93,30.47,10.0,Calm,Calm,-,N/A,,Clear,0,2013-01-18 12:15:00
6:35 AM,24.8,23.0,93,30.47,10.0,Calm,Calm,-,N/A,,Clear,0,2013-01-18 12:35:00
6:55 AM,26.6,23.0,86,30.48,10.0,Calm,Calm,-,N/A,,Clear,0,2013-01-18 12:55:00
7:15 AM,24.8,23.0,93,30.48,10.0,Calm,Calm,-,N/A,,Clear,0,2013-01-18 13:15:00
7:35 AM,24.8,23.0,93,30.48,10.0,Calm,Calm,-,N/A,,Clear,0,2013-01-18 13:35:00
7:55 AM,26.6,24.8,93,30.48,10.0,Calm,Calm,-,N/A,,Clear,0,2013-01-18 13:55:00
8:15 AM,28.4,24.8,86,30.48,10.0,Calm,Calm,-,N/A,,Clear,0,2013-01-18 14:15:00
8:35 AM,30.2,28.4,93,30.47,10.0,Calm,Calm,-,N/A,,Clear,0,2013-01-18 14:35:00
8:55 AM,33.8,32.0,93,30.47,10.0,Calm,Calm,-,N/A,,Clear,0,2013-01-18 14:55:00
9:35 AM,41.0,32.0,70,30.47,10.0,SSE,10.4,-,N/A,,Clear,160,2013-01-18 15:35:00
9:55 AM,44.6,32.0,61,30.47,10.0,SSE,13.8,-,N/A,,Clear,160,2013-01-18 15:55:00
10:15 AM,46.4,32.0,57,30.47,10.0,SSE,13.8,19.6,N/A,,Clear,150,2013-01-18 16:15:00
10:35 AM,48.2,32.0,54,30.47,10.0,SSE,9.2,-,N/A,,Clear,160,2013-01-18 16:35:00
10:55 AM,50.0,32.0,50,30.46,10.0,SSE,12.7,16.1,N/A,,Clear,160,2013-01-18 16:55:00
11:15 AM,51.8,32.0,47,30.46,-9999.0,SSE,11.5,-,N/A,,Clear,160,2013-01-18 17:15:00
11:35 AM,53.6,30.2,41,30.44,-9999.0,South,12.7,-,N/A,,Clear,170,2013-01-18 17:35:00
11:55 AM,53.6,32.0,44,30.43,10.0,South,11.5,-,N/A,,Unknown,190,2013-01-18 17:55:00
12:15 PM,-9999,-9999,N/A,30.40,-9999.0,SSE,13.8,17.3,N/A,,Unknown,150,2013-01-18 18:15:00
12:35 PM,57.2,28.4,33,30.40,10.0,South,11.5,-,N/A,,Clear,170,2013-01-18 18:35:00
12:55 PM,57.2,28.4,33,30.39,10.0,South,11.5,16.1,N/A,,Clear,190,2013-01-18 18:55:00
1:15 PM,59.0,30.2,34,30.37,10.0,South,11.5,-,N/A,,Clear,190,2013-01-18 19:15:00
1:35 PM,59.0,30.2,34,30.35,10.0,South,10.4,-,N/A,,Clear,170,2013-01-18 19:35:00
1:55 PM,60.8,30.2,31,30.34,10.0,South,8.1,-,N/A,,Clear,170,2013-01-18 19:55:00
2:15 PM,60.8,30.2,31,30.33,10.0,South,11.5,-,N/A,,Clear,180,2013-01-18 20:15:00
2:35 PM,62.6,30.2,30,30.33,10.0,SSW,9.2,-,N/A,,Clear,200,2013-01-18 20:35:00
2:55 PM,62.6,30.2,30,30.32,10.0,SW,6.9,-,N/A,,Clear,230,2013-01-18 20:55:00
3:15 PM,62.6,28.4,27,30.32,8.0,SW,6.9,-,N/A,,Clear,230,2013-01-18 21:15:00
3:35 PM,62.6,28.4,27,30.31,9.0,SSW,6.9,-,N/A,,Clear,210,2013-01-18 21:35:00
3:55 PM,62.6,28.4,27,30.30,10.0,SSW,4.6,-,N/A,,Clear,200,2013-01-18 21:55:00
4:15 PM,62.6,28.4,27,30.30,10.0,SSW,5.8,-,N/A,,Clear,200,2013-01-18 22:15:00
4:35 PM,62.6,28.4,27,30.30,10.0,South,9.2,-,N/A,,Clear,180,2013-01-18 22:35:00
4:55 PM,62.6,28.4,27,30.29,10.0,South,4.6,-,N/A,,Clear,190,2013-01-18 22:55:00
5:15 PM,60.8,28.4,29,30.29,10.0,SSE,6.9,-,N/A,,Clear,150,2013-01-18 23:15:00
5:35 PM,59.0,28.4,31,30.29,10.0,SSE,4.6,-,N/A,,Clear,150,2013-01-18 23:35:00
5:55 PM,59.0,28.4,31,30.30,10.0,SSE,5.8,-,N/A,,Clear,150,2013-01-18 23:55:00
6:15 PM,55.4,32.0,41,30.29,10.0,SE,4.6,-,N/A,,Clear,140,2013-01-19 00:15:00
6:35 PM,50.0,32.0,50,30.30,10.0,ESE,5.8,-,N/A,,Clear,120,2013-01-19 00:35:00
6:55 PM,50.0,30.2,47,30.30,10.0,ESE,6.9,-,N/A,,Clear,120,2013-01-19 00:55:00
7:15 PM,48.2,30.2,50,30.30,10.0,ESE,6.9,-,N/A,,Partly Cloudy,120,2013-01-19 01:15:00
7:35 PM,48.2,30.2,50,30.30,10.0,SE,8.1,-,N/A,,Partly Cloudy,130,2013-01-19 01:35:00
7:55 PM,48.2,32.0,54,30.29,10.0,SE,8.1,-,N/A,,Scattered Clouds,130,2013-01-19 01:55:00
8:15 PM,50.0,30.2,47,30.29,10.0,SE,9.2,-,N/A,,Scattered Clouds,130,2013-01-19 02:15:00
8:35 PM,48.2,30.2,50,30.29,10.0,SE,9.2,-,N/A,,Mostly Cloudy,130,2013-01-19 02:35:00
8:55 PM,48.2,30.2,50,30.29,10.0,SE,8.1,-,N/A,,Mostly Cloudy,140,2013-01-19 02:55:00
9:15 PM,48.2,30.2,50,30.29,10.0,SSE,6.9,-,N/A,,Mostly Cloudy,150,2013-01-19 03:15:00
9:35 PM,48.2,30.2,50,30.28,10.0,SSE,9.2,-,N/A,,Mostly Cloudy,150,2013-01-19 03:35:00
9:55 PM,48.2,30.2,50,30.28,10.0,SSE,10.4,-,N/A,,Scattered Clouds,150,2013-01-19 03:55:00
10:15 PM,48.2,28.4,46,30.28,10.0,SSE,9.2,-,N/A,,Mostly Cloudy,160,2013-01-19 04:15:00
10:35 PM,48.2,30.2,50,30.28,10.0,South,8.1,-,N/A,,Mostly Cloudy,170,2013-01-19 04:35:00
10:55 PM,46.4,30.2,53,30.27,10.0,SSE,8.1,-,N/A,,Overcast,160,2013-01-19 04:55:00
11:15 PM,46.4,30.2,53,30.26,10.0,SSE,9.2,-,N/A,,Mostly Cloudy,150,2013-01-19 05:15:00
11:35 PM,46.4,32.0,57,30.25,10.0,SSE,9.2,-,N/A,,Partly Cloudy,160,2013-01-19 05:35:00
11:55 PM,46.4,32.0,57,30.25,10.0,South,6.9,-,N/A,,Clear,170,2013-01-19 05:55:00